sensor_id;sensor_type;location;lat;lon;timestamp;pressure;altitude;pressure_sealevel;temperature;humidity
19761;BME280;10039;42.632;23.408;2023-11-22T00:01:22;94285.53;;;7.66;76.14
19761;BME280;10039;42.632;23.408;2023-11-22T00:03:48;94279.31;;;7.53;76.36
19761;BME280;10039;42.632;23.408;2023-11-22T00:06:15;94308.13;;;7.74;75.78
19761;BME280;10039;42.632;23.408;2023-11-22T00:08:41;94309.28;;;7.73;76.01
19761;BME280;10039;42.632;23.408;2023-11-22T00:11:07;94301.03;;;7.68;76.28
19761;BME280;10039;42.632;23.408;2023-11-22T00:13:34;94300.69;;;7.66;76.44
19761;BME280;10039;42.632;23.408;2023-11-22T00:15:59;94291.84;;;7.72;76.45
19761;BME280;10039;42.632;23.408;2023-11-22T00:18:26;94270.19;;;7.73;75.73
19761;BME280;10039;42.632;23.408;2023-11-22T00:20:53;94271.91;;;7.64;75.56
19761;BME280;10039;42.632;23.408;2023-11-22T00:23:20;94276.94;;;7.78;75.81
19761;BME280;10039;42.632;23.408;2023-11-22T00:25:46;94261.75;;;7.59;76.24
19761;BME280;10039;42.632;23.408;2023-11-22T00:28:12;94274.63;;;7.80;76.11
19761;BME280;10039;42.632;23.408;2023-11-22T00:30:38;94233.50;;;7.49;76.16
19761;BME280;10039;42.632;23.408;2023-11-22T00:33:03;94275.28;;;7.84;76.03
19761;BME280;10039;42.632;23.408;2023-11-22T00:35:30;94257.47;;;7.65;75.93
19761;BME280;10039;42.632;23.408;2023-11-22T00:37:56;94256.09;;;7.57;76.06
19761;BME280;10039;42.632;23.408;2023-11-22T00:40:23;94269.97;;;7.84;76.18
19761;BME280;10039;42.632;23.408;2023-11-22T00:42:49;94250.59;;;7.68;76.10
19761;BME280;10039;42.632;23.408;2023-11-22T00:45:15;94259.91;;;7.56;76.59
19761;BME280;10039;42.632;23.408;2023-11-22T00:47:41;94257.06;;;7.47;77.17
19761;BME280;10039;42.632;23.408;2023-11-22T00:50:07;94292.25;;;7.71;77.22
19761;BME280;10039;42.632;23.408;2023-11-22T00:52:33;94249.97;;;7.60;76.49
19761;BME280;10039;42.632;23.408;2023-11-22T00:54:59;94268.56;;;7.79;76.56
19761;BME280;10039;42.632;23.408;2023-11-22T00:57:25;94269.50;;;7.89;76.71
19761;BME280;10039;42.632;23.408;2023-11-22T00:59:52;94253.22;;;7.87;75.82
19761;BME280;10039;42.632;23.408;2023-11-22T01:02:19;94264.59;;;8.07;75.29
19761;BME280;10039;42.632;23.408;2023-11-22T01:04:46;94277.72;;;8.14;74.76
19761;BME280;10039;42.632;23.408;2023-11-22T01:07:12;94265.66;;;8.09;75.11
19761;BME280;10039;42.632;23.408;2023-11-22T01:09:37;94260.97;;;7.97;74.56
19761;BME280;10039;42.632;23.408;2023-11-22T01:12:03;94243.81;;;8.02;74.06
19761;BME280;10039;42.632;23.408;2023-11-22T01:14:29;94232.75;;;7.87;75.05
19761;BME280;10039;42.632;23.408;2023-11-22T01:16:55;94276.56;;;8.15;74.42
19761;BME280;10039;42.632;23.408;2023-11-22T01:19:21;94266.28;;;8.17;74.72
19761;BME280;10039;42.632;23.408;2023-11-22T01:21:47;94261.75;;;8.14;74.84
19761;BME280;10039;42.632;23.408;2023-11-22T01:24:13;94232.84;;;8.00;74.80
19761;BME280;10039;42.632;23.408;2023-11-22T01:26:38;94249.97;;;8.15;74.95
19761;BME280;10039;42.632;23.408;2023-11-22T01:29:04;94238.19;;;8.16;75.25
19761;BME280;10039;42.632;23.408;2023-11-22T01:31:30;94247.84;;;8.10;75.43
19761;BME280;10039;42.632;23.408;2023-11-22T01:33:59;94249.81;;;8.06;75.53
19761;BME280;10039;42.632;23.408;2023-11-22T01:36:25;94239.66;;;8.01;76.03
19761;BME280;10039;42.632;23.408;2023-11-22T01:38:51;94219.97;;;7.98;75.58
19761;BME280;10039;42.632;23.408;2023-11-22T01:41:18;94239.84;;;8.10;75.40
19761;BME280;10039;42.632;23.408;2023-11-22T01:43:43;94230.09;;;8.23;75.55
19761;BME280;10039;42.632;23.408;2023-11-22T01:46:14;94207.97;;;8.10;75.17
19761;BME280;10039;42.632;23.408;2023-11-22T01:48:44;94227.28;;;8.30;75.31
19761;BME280;10039;42.632;23.408;2023-11-22T01:51:10;94233.50;;;8.23;74.87
19761;BME280;10039;42.632;23.408;2023-11-22T01:53:36;94234.41;;;8.17;75.88
19761;BME280;10039;42.632;23.408;2023-11-22T01:56:02;94209.69;;;8.00;75.76
19761;BME280;10039;42.632;23.408;2023-11-22T01:58:28;94224.03;;;8.22;75.38
19761;BME280;10039;42.632;23.408;2023-11-22T02:00:54;94181.13;;;7.88;75.83
19761;BME280;10039;42.632;23.408;2023-11-22T02:03:19;94208.03;;;8.06;75.53
19761;BME280;10039;42.632;23.408;2023-11-22T02:05:46;94202.47;;;8.01;75.58
19761;BME280;10039;42.632;23.408;2023-11-22T02:08:12;94208.94;;;8.00;75.80
19761;BME280;10039;42.632;23.408;2023-11-22T02:10:39;94197.66;;;7.96;76.03
19761;BME280;10039;42.632;23.408;2023-11-22T02:13:05;94220.72;;;8.18;75.33
19761;BME280;10039;42.632;23.408;2023-11-22T02:15:37;94214.69;;;8.14;75.47
19761;BME280;10039;42.632;23.408;2023-11-22T02:18:03;94198.84;;;8.11;75.51
19761;BME280;10039;42.632;23.408;2023-11-22T02:20:31;94203.53;;;8.03;75.14
19761;BME280;10039;42.632;23.408;2023-11-22T02:23:01;94220.28;;;8.20;74.92
19761;BME280;10039;42.632;23.408;2023-11-22T02:25:26;94185.00;;;7.84;75.47
19761;BME280;10039;42.632;23.408;2023-11-22T02:27:52;94203.47;;;8.07;74.98
19761;BME280;10039;42.632;23.408;2023-11-22T02:30:21;94216.13;;;8.19;74.80
19761;BME280;10039;42.632;23.408;2023-11-22T02:32:47;94218.31;;;8.24;75.15
19761;BME280;10039;42.632;23.408;2023-11-22T02:35:13;94225.13;;;8.25;74.58
19761;BME280;10039;42.632;23.408;2023-11-22T02:37:41;94225.41;;;8.11;75.40
19761;BME280;10039;42.632;23.408;2023-11-22T02:40:19;94215.75;;;8.20;75.40
19761;BME280;10039;42.632;23.408;2023-11-22T02:42:53;94220.72;;;8.18;75.51
19761;BME280;10039;42.632;23.408;2023-11-22T02:45:25;94230.53;;;8.21;74.86
19761;BME280;10039;42.632;23.408;2023-11-22T02:47:50;94222.63;;;8.18;75.14
19761;BME280;10039;42.632;23.408;2023-11-22T02:50:18;94188.75;;;8.02;75.17
19761;BME280;10039;42.632;23.408;2023-11-22T02:52:43;94213.28;;;8.10;75.47
19761;BME280;10039;42.632;23.408;2023-11-22T02:55:09;94227.56;;;8.16;75.63
19761;BME280;10039;42.632;23.408;2023-11-22T02:57:39;94195.19;;;8.05;74.98
19761;BME280;10039;42.632;23.408;2023-11-22T03:00:09;94231.19;;;8.25;75.59
19761;BME280;10039;42.632;23.408;2023-11-22T03:02:39;94218.44;;;8.17;76.30
19761;BME280;10039;42.632;23.408;2023-11-22T03:05:08;94199.22;;;7.93;76.25
19761;BME280;10039;42.632;23.408;2023-11-22T03:07:35;94212.09;;;7.95;77.38
19761;BME280;10039;42.632;23.408;2023-11-22T03:10:02;94232.44;;;8.01;77.12
19761;BME280;10039;42.632;23.408;2023-11-22T03:12:28;94236.34;;;8.13;76.43
19761;BME280;10039;42.632;23.408;2023-11-22T03:14:53;94248.22;;;8.08;76.73
19761;BME280;10039;42.632;23.408;2023-11-22T03:17:24;94196.44;;;7.81;76.50
19761;BME280;10039;42.632;23.408;2023-11-22T03:19:50;94223.66;;;7.85;77.56
19761;BME280;10039;42.632;23.408;2023-11-22T03:22:16;94204.75;;;7.83;77.43
19761;BME280;10039;42.632;23.408;2023-11-22T03:24:42;94217.22;;;7.67;78.14
19761;BME280;10039;42.632;23.408;2023-11-22T03:27:08;94226.97;;;7.73;78.15
19761;BME280;10039;42.632;23.408;2023-11-22T03:29:34;94232.66;;;7.91;77.78
19761;BME280;10039;42.632;23.408;2023-11-22T03:32:00;94195.09;;;7.73;77.49
19761;BME280;10039;42.632;23.408;2023-11-22T03:34:26;94226.19;;;7.92;77.97
19761;BME280;10039;42.632;23.408;2023-11-22T03:36:52;94235.91;;;7.98;77.86
19761;BME280;10039;42.632;23.408;2023-11-22T03:39:18;94224.13;;;7.99;77.98
19761;BME280;10039;42.632;23.408;2023-11-22T03:41:43;94213.38;;;7.87;78.02
19761;BME280;10039;42.632;23.408;2023-11-22T03:44:09;94209.63;;;8.04;77.55
19761;BME280;10039;42.632;23.408;2023-11-22T03:46:36;94224.75;;;8.07;77.07
19761;BME280;10039;42.632;23.408;2023-11-22T03:49:05;94237.25;;;8.26;76.52
19761;BME280;10039;42.632;23.408;2023-11-22T03:51:35;94215.84;;;8.13;76.20
19761;BME280;10039;42.632;23.408;2023-11-22T03:54:02;94213.28;;;8.10;76.59
19761;BME280;10039;42.632;23.408;2023-11-22T03:56:31;94222.72;;;8.30;76.18
19761;BME280;10039;42.632;23.408;2023-11-22T03:58:57;94222.06;;;8.26;76.24
19761;BME280;10039;42.632;23.408;2023-11-22T04:01:24;94216.56;;;8.33;76.40
19761;BME280;10039;42.632;23.408;2023-11-22T04:03:52;94178.81;;;8.06;76.33
19761;BME280;10039;42.632;23.408;2023-11-22T04:06:21;94206.19;;;8.23;76.09
19761;BME280;10039;42.632;23.408;2023-11-22T04:08:50;94230.81;;;8.43;75.90
19761;BME280;10039;42.632;23.408;2023-11-22T04:11:18;94232.31;;;8.44;75.40
19761;BME280;10039;42.632;23.408;2023-11-22T04:13:44;94224.72;;;8.42;75.81
19761;BME280;10039;42.632;23.408;2023-11-22T04:16:10;94237.78;;;8.37;75.40
19761;BME280;10039;42.632;23.408;2023-11-22T04:18:42;94244.59;;;8.54;75.34
19761;BME280;10039;42.632;23.408;2023-11-22T04:21:08;94236.22;;;8.55;75.08
19761;BME280;10039;42.632;23.408;2023-11-22T04:23:35;94259.22;;;8.62;74.87
19761;BME280;10039;42.632;23.408;2023-11-22T04:26:02;94248.81;;;8.51;74.88
19761;BME280;10039;42.632;23.408;2023-11-22T04:28:28;94261.13;;;8.61;74.88
19761;BME280;10039;42.632;23.408;2023-11-22T04:30:57;94233.94;;;8.38;74.19
19761;BME280;10039;42.632;23.408;2023-11-22T04:33:23;94265.50;;;8.52;74.55
19761;BME280;10039;42.632;23.408;2023-11-22T04:35:49;94257.97;;;8.50;74.27
19761;BME280;10039;42.632;23.408;2023-11-22T04:38:16;94255.66;;;8.52;74.26
19761;BME280;10039;42.632;23.408;2023-11-22T04:40:43;94275.75;;;8.69;74.72
19761;BME280;10039;42.632;23.408;2023-11-22T04:43:09;94246.56;;;8.50;74.07
19761;BME280;10039;42.632;23.408;2023-11-22T04:45:35;94271.16;;;8.54;74.32
19761;BME280;10039;42.632;23.408;2023-11-22T04:48:01;94281.31;;;8.59;74.06
19761;BME280;10039;42.632;23.408;2023-11-22T04:50:27;94268.25;;;8.48;74.37
19761;BME280;10039;42.632;23.408;2023-11-22T04:52:53;94280.41;;;8.49;74.61
19761;BME280;10039;42.632;23.408;2023-11-22T04:55:19;94285.97;;;8.55;74.05
19761;BME280;10039;42.632;23.408;2023-11-22T04:57:46;94296.75;;;8.48;74.35
19761;BME280;10039;42.632;23.408;2023-11-22T05:00:12;94310.72;;;8.52;74.77
19761;BME280;10039;42.632;23.408;2023-11-22T05:02:38;94272.13;;;8.28;75.28
19761;BME280;10039;42.632;23.408;2023-11-22T05:05:06;94296.31;;;8.33;74.97
19761;BME280;10039;42.632;23.408;2023-11-22T05:07:31;94299.50;;;8.44;74.93
19761;BME280;10039;42.632;23.408;2023-11-22T05:10:00;94331.03;;;8.62;74.75
19761;BME280;10039;42.632;23.408;2023-11-22T05:12:25;94340.16;;;8.61;75.35
19761;BME280;10039;42.632;23.408;2023-11-22T05:14:51;94320.03;;;8.44;75.03
19761;BME280;10039;42.632;23.408;2023-11-22T05:17:18;94323.91;;;8.39;75.46
19761;BME280;10039;42.632;23.408;2023-11-22T05:19:44;94324.66;;;8.40;76.26
19761;BME280;10039;42.632;23.408;2023-11-22T05:22:10;94299.19;;;8.23;76.17
19761;BME280;10039;42.632;23.408;2023-11-22T05:24:36;94346.19;;;8.45;76.32
19761;BME280;10039;42.632;23.408;2023-11-22T05:27:06;94339.97;;;8.52;75.88
19761;BME280;10039;42.632;23.408;2023-11-22T05:29:32;94352.00;;;8.40;76.14
19761;BME280;10039;42.632;23.408;2023-11-22T05:31:59;94362.59;;;8.60;75.78
19761;BME280;10039;42.632;23.408;2023-11-22T05:34:26;94336.47;;;8.39;76.15
19761;BME280;10039;42.632;23.408;2023-11-22T05:36:52;94371.66;;;8.62;75.94
19761;BME280;10039;42.632;23.408;2023-11-22T05:39:18;94370.25;;;8.58;76.41
19761;BME280;10039;42.632;23.408;2023-11-22T05:41:44;94366.41;;;8.59;76.39
19761;BME280;10039;42.632;23.408;2023-11-22T05:44:10;94366.06;;;8.57;75.97
19761;BME280;10039;42.632;23.408;2023-11-22T05:46:36;94366.06;;;8.57;76.22
19761;BME280;10039;42.632;23.408;2023-11-22T05:49:04;94382.69;;;8.80;75.44
19761;BME280;10039;42.632;23.408;2023-11-22T05:51:29;94369.03;;;8.78;74.96
19761;BME280;10039;42.632;23.408;2023-11-22T05:53:58;94391.91;;;8.76;75.72
19761;BME280;10039;42.632;23.408;2023-11-22T05:56:24;94364.53;;;8.40;76.46
19761;BME280;10039;42.632;23.408;2023-11-22T05:58:50;94396.94;;;8.70;76.63
19761;BME280;10039;42.632;23.408;2023-11-22T06:01:15;94392.09;;;8.65;76.67
19761;BME280;10039;42.632;23.408;2023-11-22T06:03:42;94401.19;;;8.68;76.27
19761;BME280;10039;42.632;23.408;2023-11-22T06:06:07;94396.00;;;8.61;76.04
19761;BME280;10039;42.632;23.408;2023-11-22T06:08:34;94381.47;;;8.65;75.83
19761;BME280;10039;42.632;23.408;2023-11-22T06:11:00;94390.59;;;8.64;75.96
19761;BME280;10039;42.632;23.408;2023-11-22T06:13:26;94418.34;;;8.83;76.18
19761;BME280;10039;42.632;23.408;2023-11-22T06:15:52;94389.88;;;8.64;76.18
19761;BME280;10039;42.632;23.408;2023-11-22T06:18:18;94408.13;;;8.81;76.57
19761;BME280;10039;42.632;23.408;2023-11-22T06:20:45;94363.06;;;8.55;76.07
19761;BME280;10039;42.632;23.408;2023-11-22T06:23:13;94425.00;;;8.90;76.38
19761;BME280;10039;42.632;23.408;2023-11-22T06:25:39;94425.56;;;8.82;76.15
19761;BME280;10039;42.632;23.408;2023-11-22T06:28:07;94448.47;;;8.95;75.74
19761;BME280;10039;42.632;23.408;2023-11-22T06:30:33;94434.25;;;8.86;76.83
19761;BME280;10039;42.632;23.408;2023-11-22T06:33:00;94418.75;;;8.81;76.52
19761;BME280;10039;42.632;23.408;2023-11-22T06:35:26;94424.28;;;8.90;75.93
19761;BME280;10039;42.632;23.408;2023-11-22T06:37:52;94453.91;;;9.08;75.77
19761;BME280;10039;42.632;23.408;2023-11-22T06:40:18;94422.69;;;8.92;76.00
19761;BME280;10039;42.632;23.408;2023-11-22T06:42:46;94445.81;;;9.11;76.15
19761;BME280;10039;42.632;23.408;2023-11-22T06:45:12;94441.75;;;9.07;76.71
19761;BME280;10039;42.632;23.408;2023-11-22T06:47:47;94452.66;;;9.12;76.08
19761;BME280;10039;42.632;23.408;2023-11-22T06:50:15;94446.00;;;9.04;75.80
19761;BME280;10039;42.632;23.408;2023-11-22T06:52:42;94472.63;;;9.20;75.91
19761;BME280;10039;42.632;23.408;2023-11-22T06:55:09;94419.88;;;8.99;74.73
19761;BME280;10039;42.632;23.408;2023-11-22T06:57:36;94432.84;;;9.13;74.85
19761;BME280;10039;42.632;23.408;2023-11-22T07:00:02;94482.50;;;9.39;75.29
19761;BME280;10039;42.632;23.408;2023-11-22T07:02:33;94450.84;;;9.25;75.12
19761;BME280;10039;42.632;23.408;2023-11-22T07:05:03;94475.97;;;9.40;75.60
19761;BME280;10039;42.632;23.408;2023-11-22T07:07:29;94471.66;;;9.46;75.59
19761;BME280;10039;42.632;23.408;2023-11-22T07:09:55;94482.16;;;9.53;74.99
19761;BME280;10039;42.632;23.408;2023-11-22T07:12:24;94479.16;;;9.51;75.62
19761;BME280;10039;42.632;23.408;2023-11-22T07:14:50;94468.50;;;9.51;75.07
19761;BME280;10039;42.632;23.408;2023-11-22T07:17:17;94475.19;;;9.59;74.87
19761;BME280;10039;42.632;23.408;2023-11-22T07:19:48;94472.75;;;9.65;74.13
19761;BME280;10039;42.632;23.408;2023-11-22T07:22:17;94458.34;;;9.46;74.58
19761;BME280;10039;42.632;23.408;2023-11-22T07:24:45;94479.59;;;9.66;75.12
19761;BME280;10039;42.632;23.408;2023-11-22T07:27:13;94488.00;;;9.64;75.92
19761;BME280;10039;42.632;23.408;2023-11-22T07:29:43;94485.34;;;9.64;75.77
19761;BME280;10039;42.632;23.408;2023-11-22T07:32:09;94489.41;;;9.69;74.93
19761;BME280;10039;42.632;23.408;2023-11-22T07:34:36;94485.91;;;9.72;74.98
19761;BME280;10039;42.632;23.408;2023-11-22T07:37:02;94466.44;;;9.59;74.37
19761;BME280;10039;42.632;23.408;2023-11-22T07:39:31;94462.19;;;9.61;74.84
19761;BME280;10039;42.632;23.408;2023-11-22T07:41:56;94484.66;;;9.76;73.93
19761;BME280;10039;42.632;23.408;2023-11-22T07:44:22;94489.16;;;9.79;73.97
19761;BME280;10039;42.632;23.408;2023-11-22T07:46:49;94470.28;;;9.74;73.78
19761;BME280;10039;42.632;23.408;2023-11-22T07:49:17;94506.06;;;9.89;74.48
19761;BME280;10039;42.632;23.408;2023-11-22T07:51:44;94489.50;;;9.65;74.65
19761;BME280;10039;42.632;23.408;2023-11-22T07:54:13;94459.34;;;9.52;74.98
19761;BME280;10039;42.632;23.408;2023-11-22T07:56:41;94481.31;;;9.72;74.79
19761;BME280;10039;42.632;23.408;2023-11-22T07:59:09;94507.81;;;9.95;73.83
19761;BME280;10039;42.632;23.408;2023-11-22T08:01:36;94489.75;;;9.87;74.51
19761;BME280;10039;42.632;23.408;2023-11-22T08:04:02;94501.31;;;9.96;74.33
19761;BME280;10039;42.632;23.408;2023-11-22T08:06:34;94509.81;;;10.07;74.78
19761;BME280;10039;42.632;23.408;2023-11-22T08:09:00;94491.50;;;9.93;74.62
19761;BME280;10039;42.632;23.408;2023-11-22T08:11:30;94502.59;;;10.07;74.22
19761;BME280;10039;42.632;23.408;2023-11-22T08:13:57;94502.81;;;10.13;74.11
19761;BME280;10039;42.632;23.408;2023-11-22T08:16:25;94478.03;;;10.00;74.84
19761;BME280;10039;42.632;23.408;2023-11-22T08:18:51;94505.66;;;10.22;74.50
19761;BME280;10039;42.632;23.408;2023-11-22T08:21:17;94515.31;;;10.32;75.17
19761;BME280;10039;42.632;23.408;2023-11-22T08:23:43;94493.50;;;10.21;75.23
19761;BME280;10039;42.632;23.408;2023-11-22T08:26:08;94510.31;;;10.34;74.60
19761;BME280;10039;42.632;23.408;2023-11-22T08:28:34;94522.16;;;10.33;74.33
19761;BME280;10039;42.632;23.408;2023-11-22T08:31:00;94508.16;;;10.29;74.41
19761;BME280;10039;42.632;23.408;2023-11-22T08:33:26;94524.78;;;10.49;74.80
19761;BME280;10039;42.632;23.408;2023-11-22T08:35:53;94532.38;;;10.50;74.17
19761;BME280;10039;42.632;23.408;2023-11-22T08:38:25;94523.28;;;10.48;74.71
19761;BME280;10039;42.632;23.408;2023-11-22T08:40:53;94515.19;;;10.51;75.24
19761;BME280;10039;42.632;23.408;2023-11-22T08:43:20;94525.66;;;10.58;74.56
19761;BME280;10039;42.632;23.408;2023-11-22T08:45:52;94538.50;;;10.63;74.49
19761;BME280;10039;42.632;23.408;2023-11-22T08:48:17;94532.44;;;10.63;74.24
19761;BME280;10039;42.632;23.408;2023-11-22T08:50:44;94522.09;;;10.49;74.72
19761;BME280;10039;42.632;23.408;2023-11-22T08:53:10;94533.91;;;10.64;73.42
19761;BME280;10039;42.632;23.408;2023-11-22T08:55:36;94542.75;;;10.61;73.95
19761;BME280;10039;42.632;23.408;2023-11-22T08:58:02;94483.88;;;10.39;73.89
19761;BME280;10039;42.632;23.408;2023-11-22T09:00:28;94500.63;;;10.40;74.45
19761;BME280;10039;42.632;23.408;2023-11-22T09:02:57;94524.81;;;10.33;76.80
19761;BME280;10039;42.632;23.408;2023-11-22T09:05:23;94520.78;;;10.41;76.55
19761;BME280;10039;42.632;23.408;2023-11-22T09:07:49;94489.81;;;10.31;76.00
19761;BME280;10039;42.632;23.408;2023-11-22T09:10:16;94511.81;;;10.35;76.19
19761;BME280;10039;42.632;23.408;2023-11-22T09:12:43;94514.38;;;10.38;75.86
19761;BME280;10039;42.632;23.408;2023-11-22T09:15:11;94541.94;;;10.64;76.36
19761;BME280;10039;42.632;23.408;2023-11-22T09:17:38;94541.94;;;10.64;76.12
19761;BME280;10039;42.632;23.408;2023-11-22T09:20:09;94548.44;;;10.47;76.77
19761;BME280;10039;42.632;23.408;2023-11-22T09:22:43;94541.00;;;10.54;76.26
19761;BME280;10039;42.632;23.408;2023-11-22T09:25:16;94530.88;;;10.49;75.23
19761;BME280;10039;42.632;23.408;2023-11-22T09:27:43;94554.94;;;10.62;75.81
19761;BME280;10039;42.632;23.408;2023-11-22T09:30:12;94570.91;;;10.78;75.22
19761;BME280;10039;42.632;23.408;2023-11-22T09:32:45;94555.81;;;10.71;74.72
19761;BME280;10039;42.632;23.408;2023-11-22T09:35:12;94565.94;;;10.92;74.87
19761;BME280;10039;42.632;23.408;2023-11-22T09:37:41;94573.88;;;10.96;74.68
19761;BME280;10039;42.632;23.408;2023-11-22T09:40:11;94559.19;;;10.88;74.24
19761;BME280;10039;42.632;23.408;2023-11-22T09:42:38;94575.25;;;11.00;74.37
19761;BME280;10039;42.632;23.408;2023-11-22T09:45:04;94565.09;;;10.95;74.45
19761;BME280;10039;42.632;23.408;2023-11-22T09:47:32;94565.41;;;10.97;74.39
19761;BME280;10039;42.632;23.408;2023-11-22T09:50:01;94532.16;;;10.57;75.46
19761;BME280;10039;42.632;23.408;2023-11-22T09:52:33;94526.38;;;10.46;75.70
19761;BME280;10039;42.632;23.408;2023-11-22T09:55:00;94564.09;;;10.89;75.13
19761;BME280;10039;42.632;23.408;2023-11-22T09:57:27;94561.59;;;10.98;75.29
19761;BME280;10039;42.632;23.408;2023-11-22T09:59:55;94531.00;;;10.87;75.29
19761;BME280;10039;42.632;23.408;2023-11-22T10:02:23;94555.28;;;11.05;74.77
19761;BME280;10039;42.632;23.408;2023-11-22T10:04:53;94522.03;;;10.93;74.49
19761;BME280;10039;42.632;23.408;2023-11-22T10:07:19;94531.59;;;11.07;74.21
19761;BME280;10039;42.632;23.408;2023-11-22T10:09:44;94567.22;;;11.28;73.82
19761;BME280;10039;42.632;23.408;2023-11-22T10:12:19;94536.38;;;10.99;74.77
19761;BME280;10039;42.632;23.408;2023-11-22T10:14:48;94565.41;;;11.25;74.41
19761;BME280;10039;42.632;23.408;2023-11-22T10:17:13;94548.53;;;11.28;74.82
19761;BME280;10039;42.632;23.408;2023-11-22T10:19:42;94549.38;;;11.25;75.00
19761;BME280;10039;42.632;23.408;2023-11-22T10:22:08;94542.09;;;11.26;75.32
19761;BME280;10039;42.632;23.408;2023-11-22T10:24:34;94559.00;;;11.35;74.81
19761;BME280;10039;42.632;23.408;2023-11-22T10:27:01;94552.25;;;11.31;74.30
19761;BME280;10039;42.632;23.408;2023-11-22T10:29:27;94555.91;;;11.37;74.61
19761;BME280;10039;42.632;23.408;2023-11-22T10:31:53;94553.47;;;11.42;74.10
19761;BME280;10039;42.632;23.408;2023-11-22T10:34:22;94551.31;;;11.37;74.25
19761;BME280;10039;42.632;23.408;2023-11-22T10:36:48;94550.47;;;11.40;74.18
19761;BME280;10039;42.632;23.408;2023-11-22T10:39:22;94556.44;;;11.44;74.49
19761;BME280;10039;42.632;23.408;2023-11-22T10:41:48;94562.56;;;11.45;73.61
19761;BME280;10039;42.632;23.408;2023-11-22T10:44:16;94559.34;;;11.50;73.97
19761;BME280;10039;42.632;23.408;2023-11-22T10:46:41;94541.25;;;11.41;73.85
19761;BME280;10039;42.632;23.408;2023-11-22T10:49:07;94534.00;;;11.29;72.74
19761;BME280;10039;42.632;23.408;2023-11-22T10:51:33;94545.44;;;11.42;72.48
19761;BME280;10039;42.632;23.408;2023-11-22T10:54:02;94560.78;;;11.67;71.82
19761;BME280;10039;42.632;23.408;2023-11-22T10:56:38;94555.00;;;11.68;71.74
19761;BME280;10039;42.632;23.408;2023-11-22T10:59:10;94559.50;;;11.84;71.21
19761;BME280;10039;42.632;23.408;2023-11-22T11:01:38;94557.59;;;11.84;71.66
19761;BME280;10039;42.632;23.408;2023-11-22T11:04:09;94551.69;;;11.89;71.94
19761;BME280;10039;42.632;23.408;2023-11-22T11:06:41;94527.97;;;11.79;72.73
19761;BME280;10039;42.632;23.408;2023-11-22T11:09:09;94530.19;;;11.80;72.64
19761;BME280;10039;42.632;23.408;2023-11-22T11:11:37;94516.00;;;11.71;73.19
19761;BME280;10039;42.632;23.408;2023-11-22T11:14:05;94560.78;;;12.04;73.19
19761;BME280;10039;42.632;23.408;2023-11-22T11:16:34;94547.41;;;11.92;72.63
19761;BME280;10039;42.632;23.408;2023-11-22T11:19:03;94561.84;;;12.07;72.85
19761;BME280;10039;42.632;23.408;2023-11-22T11:21:30;94572.88;;;12.09;72.01
19761;BME280;10039;42.632;23.408;2023-11-22T11:23:58;94554.25;;;12.05;72.49
19761;BME280;10039;42.632;23.408;2023-11-22T11:26:28;94555.53;;;12.13;71.88
19761;BME280;10039;42.632;23.408;2023-11-22T11:28:54;94527.31;;;12.00;71.73
19761;BME280;10039;42.632;23.408;2023-11-22T11:31:23;94531.16;;;11.99;72.08
19761;BME280;10039;42.632;23.408;2023-11-22T11:36:30;94551.34;;;12.12;71.38
19761;BME280;10039;42.632;23.408;2023-11-22T11:39:01;94549.00;;;12.14;71.36
19761;BME280;10039;42.632;23.408;2023-11-22T11:41:30;94560.34;;;12.18;71.43
19761;BME280;10039;42.632;23.408;2023-11-22T11:43:58;94558.31;;;12.22;72.55
19761;BME280;10039;42.632;23.408;2023-11-22T11:46:25;94553.38;;;12.08;71.93
19761;BME280;10039;42.632;23.408;2023-11-22T11:48:53;94564.38;;;12.23;71.40
19761;BME280;10039;42.632;23.408;2023-11-22T11:51:27;94562.47;;;12.23;71.58
19761;BME280;10039;42.632;23.408;2023-11-22T11:53:53;94563.09;;;12.27;71.02
19761;BME280;10039;42.632;23.408;2023-11-22T11:56:19;94548.53;;;12.28;71.11
19761;BME280;10039;42.632;23.408;2023-11-22T11:58:47;94547.81;;;12.27;70.70
19761;BME280;10039;42.632;23.408;2023-11-22T12:01:15;94537.22;;;12.24;70.86
19761;BME280;10039;42.632;23.408;2023-11-22T12:03:46;94565.00;;;12.39;70.86
19761;BME280;10039;42.632;23.408;2023-11-22T12:06:18;94569.31;;;12.24;71.28
19761;BME280;10039;42.632;23.408;2023-11-22T12:08:45;94535.31;;;12.00;71.54
19761;BME280;10039;42.632;23.408;2023-11-22T12:11:10;94547.94;;;11.99;72.11
19761;BME280;10039;42.632;23.408;2023-11-22T12:13:38;94563.66;;;11.97;72.46
19761;BME280;10039;42.632;23.408;2023-11-22T12:16:07;94568.81;;;11.92;72.72
19761;BME280;10039;42.632;23.408;2023-11-22T12:18:46;94583.03;;;12.01;73.45
19761;BME280;10039;42.632;23.408;2023-11-22T12:21:18;94590.31;;;12.13;73.11
19761;BME280;10039;42.632;23.408;2023-11-22T12:23:45;94589.22;;;12.23;73.31
19761;BME280;10039;42.632;23.408;2023-11-22T12:26:14;94581.22;;;12.23;73.00
19761;BME280;10039;42.632;23.408;2023-11-22T12:28:41;94574.44;;;12.19;72.70
19761;BME280;10039;42.632;23.408;2023-11-22T12:33:35;94592.31;;;12.34;71.50
19761;BME280;10039;42.632;23.408;2023-11-22T12:36:02;94587.28;;;12.36;71.24
19761;BME280;10039;42.632;23.408;2023-11-22T12:38:29;94576.88;;;12.38;71.38
19761;BME280;10039;42.632;23.408;2023-11-22T12:40:58;94584.69;;;12.45;71.42
19761;BME280;10039;42.632;23.408;2023-11-22T12:43:25;94583.06;;;12.47;70.93
19761;BME280;10039;42.632;23.408;2023-11-22T12:46:04;94567.13;;;12.44;70.61
19761;BME280;10039;42.632;23.408;2023-11-22T12:48:29;94589.47;;;12.62;70.16
19761;BME280;10039;42.632;23.408;2023-11-22T12:50:56;94595.34;;;12.70;70.23
19761;BME280;10039;42.632;23.408;2023-11-22T12:53:23;94612.16;;;12.70;69.86
19761;BME280;10039;42.632;23.408;2023-11-22T12:55:52;94595.06;;;12.55;70.44
19761;BME280;10039;42.632;23.408;2023-11-22T12:58:19;94617.53;;;12.70;70.64
19761;BME280;10039;42.632;23.408;2023-11-22T13:00:46;94620.63;;;12.69;70.35
19761;BME280;10039;42.632;23.408;2023-11-22T13:03:12;94630.34;;;12.75;69.83